sensor_id;sensor_type;location;lat;lon;timestamp;P1;durP1;ratioP1;P2;durP2;ratioP2
25319;SDS011;13256;49.012;8.610;2023-02-14T00:01:29;20.23;;;8.65;;
25319;SDS011;13256;49.012;8.610;2023-02-14T00:04:08;24.67;;;9.65;;
25319;SDS011;13256;49.012;8.610;2023-02-14T00:09:28;19.10;;;8.93;;
25319;SDS011;13256;49.012;8.610;2023-02-14T00:11:57;18.38;;;9.13;;
25319;SDS011;13256;49.012;8.610;2023-02-14T00:20:10;29.75;;;13.18;;
25319;SDS011;13256;49.012;8.610;2023-02-14T00:22:48;32.33;;;15.00;;
25319;SDS011;13256;49.012;8.610;2023-02-14T00:42:18;31.05;;;14.05;;
25319;SDS011;13256;49.012;8.610;2023-02-14T00:44:55;32.10;;;13.30;;
25319;SDS011;13256;49.012;8.610;2023-02-14T00:50:58;28.48;;;12.40;;
25319;SDS011;13256;49.012;8.610;2023-02-14T01:04:58;25.45;;;11.52;;
25319;SDS011;13256;49.012;8.610;2023-02-14T01:07:52;20.05;;;9.35;;
25319;SDS011;13256;49.012;8.610;2023-02-14T01:10:29;26.08;;;11.10;;
25319;SDS011;13256;49.012;8.610;2023-02-14T01:16:04;29.13;;;12.40;;
25319;SDS011;13256;49.012;8.610;2023-02-14T01:22:12;25.85;;;11.63;;
25319;SDS011;13256;49.012;8.610;2023-02-14T01:27:47;24.67;;;10.90;;
25319;SDS011;13256;49.012;8.610;2023-02-14T01:30:21;23.17;;;11.30;;
25319;SDS011;13256;49.012;8.610;2023-02-14T01:32:57;23.40;;;10.18;;
25319;SDS011;13256;49.012;8.610;2023-02-14T01:35:55;24.23;;;10.20;;
25319;SDS011;13256;49.012;8.610;2023-02-14T01:38:26;23.35;;;9.57;;
25319;SDS011;13256;49.012;8.610;2023-02-14T01:40:54;20.92;;;9.60;;
25319;SDS011;13256;49.012;8.610;2023-02-14T01:43:24;22.90;;;10.23;;
25319;SDS011;13256;49.012;8.610;2023-02-14T01:46:05;25.13;;;10.65;;
25319;SDS011;13256;49.012;8.610;2023-02-14T01:49:08;21.73;;;9.50;;
25319;SDS011;13256;49.012;8.610;2023-02-14T01:52:16;25.00;;;10.43;;
25319;SDS011;13256;49.012;8.610;2023-02-14T01:57:54;24.15;;;9.88;;
25319;SDS011;13256;49.012;8.610;2023-02-14T02:03:56;22.08;;;9.00;;
25319;SDS011;13256;49.012;8.610;2023-02-14T02:32:29;22.73;;;9.68;;
25319;SDS011;13256;49.012;8.610;2023-02-14T02:42:20;21.08;;;8.65;;
25319;SDS011;13256;49.012;8.610;2023-02-14T02:48:08;25.25;;;10.20;;
25319;SDS011;13256;49.012;8.610;2023-02-14T02:50:48;22.33;;;9.00;;
25319;SDS011;13256;49.012;8.610;2023-02-14T02:54:08;33.60;;;13.15;;
25319;SDS011;13256;49.012;8.610;2023-02-14T02:56:53;29.30;;;12.35;;
25319;SDS011;13256;49.012;8.610;2023-02-14T02:59:51;27.02;;;10.80;;
25319;SDS011;13256;49.012;8.610;2023-02-14T03:02:31;24.60;;;9.88;;
25319;SDS011;13256;49.012;8.610;2023-02-14T03:05:22;19.48;;;8.63;;
25319;SDS011;13256;49.012;8.610;2023-02-14T03:07:50;22.75;;;10.15;;
25319;SDS011;13256;49.012;8.610;2023-02-14T03:10:29;22.33;;;10.38;;
25319;SDS011;13256;49.012;8.610;2023-02-14T03:13:11;23.58;;;9.65;;
25319;SDS011;13256;49.012;8.610;2023-02-14T03:19:16;20.88;;;10.07;;
25319;SDS011;13256;49.012;8.610;2023-02-14T03:25:10;23.20;;;9.52;;
25319;SDS011;13256;49.012;8.610;2023-02-14T03:34:13;17.90;;;8.07;;
25319;SDS011;13256;49.012;8.610;2023-02-14T03:37:11;21.38;;;9.65;;
25319;SDS011;13256;49.012;8.610;2023-02-14T03:45:17;25.40;;;10.20;;
25319;SDS011;13256;49.012;8.610;2023-02-14T03:48:48;25.85;;;9.93;;
25319;SDS011;13256;49.012;8.610;2023-02-14T03:59:51;21.08;;;8.73;;
25319;SDS011;13256;49.012;8.610;2023-02-14T04:02:26;22.83;;;9.70;;
25319;SDS011;13256;49.012;8.610;2023-02-14T04:05:13;22.92;;;9.52;;
25319;SDS011;13256;49.012;8.610;2023-02-14T04:13:37;25.58;;;10.02;;
25319;SDS011;13256;49.012;8.610;2023-02-14T04:16:05;29.45;;;11.15;;
25319;SDS011;13256;49.012;8.610;2023-02-14T04:18:38;30.55;;;12.35;;
25319;SDS011;13256;49.012;8.610;2023-02-14T04:26:55;31.80;;;11.77;;
25319;SDS011;13256;49.012;8.610;2023-02-14T04:29:48;27.10;;;10.43;;
25319;SDS011;13256;49.012;8.610;2023-02-14T04:32:27;33.15;;;11.40;;
25319;SDS011;13256;49.012;8.610;2023-02-14T04:35:07;25.88;;;11.30;;
25319;SDS011;13256;49.012;8.610;2023-02-14T04:40:34;23.40;;;10.10;;
25319;SDS011;13256;49.012;8.610;2023-02-14T04:49:03;29.35;;;11.68;;
25319;SDS011;13256;49.012;8.610;2023-02-14T04:51:30;27.98;;;11.82;;
25319;SDS011;13256;49.012;8.610;2023-02-14T04:54:00;26.83;;;12.15;;
25319;SDS011;13256;49.012;8.610;2023-02-14T04:56:30;27.63;;;11.68;;
25319;SDS011;13256;49.012;8.610;2023-02-14T04:59:00;24.92;;;9.82;;
25319;SDS011;13256;49.012;8.610;2023-02-14T05:03:57;24.70;;;9.70;;
25319;SDS011;13256;49.012;8.610;2023-02-14T05:06:29;24.50;;;10.90;;
25319;SDS011;13256;49.012;8.610;2023-02-14T05:14:35;29.10;;;12.45;;
25319;SDS011;13256;49.012;8.610;2023-02-14T05:17:03;27.83;;;12.60;;
25319;SDS011;13256;49.012;8.610;2023-02-14T05:19:35;29.08;;;13.05;;
25319;SDS011;13256;49.012;8.610;2023-02-14T05:22:04;33.03;;;13.15;;
25319;SDS011;13256;49.012;8.610;2023-02-14T05:24:34;31.55;;;13.05;;
25319;SDS011;13256;49.012;8.610;2023-02-14T05:27:02;49.70;;;18.42;;
25319;SDS011;13256;49.012;8.610;2023-02-14T05:29:30;28.50;;;11.60;;
25319;SDS011;13256;49.012;8.610;2023-02-14T05:32:01;34.47;;;13.15;;
25319;SDS011;13256;49.012;8.610;2023-02-14T05:34:53;28.35;;;11.68;;
25319;SDS011;13256;49.012;8.610;2023-02-14T05:40:22;28.35;;;11.85;;
25319;SDS011;13256;49.012;8.610;2023-02-14T05:42:53;34.08;;;13.40;;
25319;SDS011;13256;49.012;8.610;2023-02-14T05:45:33;35.20;;;14.20;;
25319;SDS011;13256;49.012;8.610;2023-02-14T05:48:05;38.08;;;16.27;;
25319;SDS011;13256;49.012;8.610;2023-02-14T05:53:26;39.53;;;15.73;;
25319;SDS011;13256;49.012;8.610;2023-02-14T05:55:53;47.95;;;16.23;;
25319;SDS011;13256;49.012;8.610;2023-02-14T06:01:18;42.60;;;16.45;;
25319;SDS011;13256;49.012;8.610;2023-02-14T06:07:09;39.42;;;16.30;;
25319;SDS011;13256;49.012;8.610;2023-02-14T06:09:36;38.92;;;15.95;;
25319;SDS011;13256;49.012;8.610;2023-02-14T06:12:28;39.22;;;15.27;;
25319;SDS011;13256;49.012;8.610;2023-02-14T06:14:55;42.83;;;16.67;;
25319;SDS011;13256;49.012;8.610;2023-02-14T06:17:23;40.25;;;15.23;;
25319;SDS011;13256;49.012;8.610;2023-02-14T06:19:59;43.03;;;17.33;;
25319;SDS011;13256;49.012;8.610;2023-02-14T06:22:35;39.35;;;15.43;;
25319;SDS011;13256;49.012;8.610;2023-02-14T06:28:12;39.15;;;14.10;;
25319;SDS011;13256;49.012;8.610;2023-02-14T06:30:40;33.80;;;14.55;;
25319;SDS011;13256;49.012;8.610;2023-02-14T06:33:10;41.22;;;16.60;;
25319;SDS011;13256;49.012;8.610;2023-02-14T06:35:44;42.42;;;18.50;;
25319;SDS011;13256;49.012;8.610;2023-02-14T06:38:13;48.22;;;19.52;;
25319;SDS011;13256;49.012;8.610;2023-02-14T06:40:44;50.70;;;19.40;;
25319;SDS011;13256;49.012;8.610;2023-02-14T06:43:14;46.40;;;19.08;;
25319;SDS011;13256;49.012;8.610;2023-02-14T06:45:42;46.53;;;19.13;;
25319;SDS011;13256;49.012;8.610;2023-02-14T06:48:09;46.92;;;17.15;;
25319;SDS011;13256;49.012;8.610;2023-02-14T06:50:37;46.55;;;18.58;;
25319;SDS011;13256;49.012;8.610;2023-02-14T06:53:04;45.03;;;18.30;;
25319;SDS011;13256;49.012;8.610;2023-02-14T06:55:34;42.17;;;17.70;;
25319;SDS011;13256;49.012;8.610;2023-02-14T06:58:06;38.08;;;15.95;;
25319;SDS011;13256;49.012;8.610;2023-02-14T07:00:33;43.60;;;16.52;;
25319;SDS011;13256;49.012;8.610;2023-02-14T07:03:00;50.20;;;18.50;;
25319;SDS011;13256;49.012;8.610;2023-02-14T07:05:33;42.50;;;17.52;;
25319;SDS011;13256;49.012;8.610;2023-02-14T07:08:06;40.50;;;16.52;;
25319;SDS011;13256;49.012;8.610;2023-02-14T07:10:37;42.72;;;16.35;;
25319;SDS011;13256;49.012;8.610;2023-02-14T07:21:32;47.72;;;18.13;;
25319;SDS011;13256;49.012;8.610;2023-02-14T07:24:03;45.78;;;17.67;;
25319;SDS011;13256;49.012;8.610;2023-02-14T07:26:30;44.53;;;18.02;;
25319;SDS011;13256;49.012;8.610;2023-02-14T07:29:01;41.60;;;17.42;;
25319;SDS011;13256;49.012;8.610;2023-02-14T07:31:32;45.05;;;16.45;;
25319;SDS011;13256;49.012;8.610;2023-02-14T07:34:00;39.33;;;15.20;;
25319;SDS011;13256;49.012;8.610;2023-02-14T07:36:27;47.05;;;15.75;;
25319;SDS011;13256;49.012;8.610;2023-02-14T07:38:57;39.53;;;15.75;;
25319;SDS011;13256;49.012;8.610;2023-02-14T07:41:35;34.78;;;14.55;;
25319;SDS011;13256;49.012;8.610;2023-02-14T07:46:42;31.83;;;14.25;;
25319;SDS011;13256;49.012;8.610;2023-02-14T07:49:15;34.28;;;15.00;;
25319;SDS011;13256;49.012;8.610;2023-02-14T07:51:45;39.40;;;15.25;;
25319;SDS011;13256;49.012;8.610;2023-02-14T07:54:19;46.38;;;16.50;;
25319;SDS011;13256;49.012;8.610;2023-02-14T07:56:49;43.78;;;16.52;;
25319;SDS011;13256;49.012;8.610;2023-02-14T07:59:22;40.45;;;15.57;;
25319;SDS011;13256;49.012;8.610;2023-02-14T08:01:55;39.17;;;15.48;;
25319;SDS011;13256;49.012;8.610;2023-02-14T08:04:29;47.10;;;15.93;;
25319;SDS011;13256;49.012;8.610;2023-02-14T08:07:01;42.13;;;18.45;;
25319;SDS011;13256;49.012;8.610;2023-02-14T08:09:31;44.55;;;16.73;;
25319;SDS011;13256;49.012;8.610;2023-02-14T08:11:58;38.35;;;16.70;;
25319;SDS011;13256;49.012;8.610;2023-02-14T08:14:44;46.03;;;17.50;;
25319;SDS011;13256;49.012;8.610;2023-02-14T08:17:15;37.55;;;16.83;;
25319;SDS011;13256;49.012;8.610;2023-02-14T08:19:46;48.40;;;20.75;;
25319;SDS011;13256;49.012;8.610;2023-02-14T08:25:02;44.67;;;18.15;;
25319;SDS011;13256;49.012;8.610;2023-02-14T08:27:31;46.17;;;18.48;;
25319;SDS011;13256;49.012;8.610;2023-02-14T08:30:01;47.13;;;18.00;;
25319;SDS011;13256;49.012;8.610;2023-02-14T08:32:29;43.30;;;18.35;;
25319;SDS011;13256;49.012;8.610;2023-02-14T08:37:29;42.22;;;16.30;;
25319;SDS011;13256;49.012;8.610;2023-02-14T08:39:56;40.90;;;16.77;;
25319;SDS011;13256;49.012;8.610;2023-02-14T08:42:23;41.67;;;18.92;;
25319;SDS011;13256;49.012;8.610;2023-02-14T08:44:51;45.00;;;19.08;;
25319;SDS011;13256;49.012;8.610;2023-02-14T08:47:18;40.85;;;16.58;;
25319;SDS011;13256;49.012;8.610;2023-02-14T08:49:47;39.95;;;17.63;;
25319;SDS011;13256;49.012;8.610;2023-02-14T08:55:21;33.55;;;15.93;;
25319;SDS011;13256;49.012;8.610;2023-02-14T08:57:58;34.05;;;14.68;;
25319;SDS011;13256;49.012;8.610;2023-02-14T09:00:26;38.83;;;15.38;;
25319;SDS011;13256;49.012;8.610;2023-02-14T09:05:43;36.42;;;15.00;;
25319;SDS011;13256;49.012;8.610;2023-02-14T09:08:14;28.90;;;12.75;;
25319;SDS011;13256;49.012;8.610;2023-02-14T09:10:45;34.10;;;14.67;;
25319;SDS011;13256;49.012;8.610;2023-02-14T09:13:14;34.08;;;15.82;;
25319;SDS011;13256;49.012;8.610;2023-02-14T09:18:38;33.25;;;14.50;;
25319;SDS011;13256;49.012;8.610;2023-02-14T09:24:05;30.08;;;13.85;;
25319;SDS011;13256;49.012;8.610;2023-02-14T09:26:41;33.70;;;14.50;;
25319;SDS011;13256;49.012;8.610;2023-02-14T09:29:08;32.83;;;14.65;;
25319;SDS011;13256;49.012;8.610;2023-02-14T09:31:37;32.95;;;14.88;;
25319;SDS011;13256;49.012;8.610;2023-02-14T09:34:12;27.30;;;15.17;;
25319;SDS011;13256;49.012;8.610;2023-02-14T09:37:03;32.22;;;15.02;;
25319;SDS011;13256;49.012;8.610;2023-02-14T09:39:32;30.70;;;14.27;;
25319;SDS011;13256;49.012;8.610;2023-02-14T09:45:04;28.95;;;14.27;;
25319;SDS011;13256;49.012;8.610;2023-02-14T09:48:01;24.17;;;10.50;;
25319;SDS011;13256;49.012;8.610;2023-02-14T09:53:46;30.80;;;14.98;;
25319;SDS011;13256;49.012;8.610;2023-02-14T10:02:32;30.13;;;13.25;;
25319;SDS011;13256;49.012;8.610;2023-02-14T10:05:21;26.38;;;12.77;;
25319;SDS011;13256;49.012;8.610;2023-02-14T10:08:56;25.85;;;12.80;;
25319;SDS011;13256;49.012;8.610;2023-02-14T10:10:51;30.50;;;13.73;;
25319;SDS011;13256;49.012;8.610;2023-02-14T10:13:34;28.70;;;13.85;;
25319;SDS011;13256;49.012;8.610;2023-02-14T10:21:47;29.00;;;13.88;;
25319;SDS011;13256;49.012;8.610;2023-02-14T10:30:26;27.08;;;13.77;;
25319;SDS011;13256;49.012;8.610;2023-02-14T10:33:17;31.10;;;13.77;;
25319;SDS011;13256;49.012;8.610;2023-02-14T10:35:51;29.80;;;14.13;;
25319;SDS011;13256;49.012;8.610;2023-02-14T10:49:55;29.67;;;14.07;;
25319;SDS011;13256;49.012;8.610;2023-02-14T10:52:39;26.20;;;13.60;;
25319;SDS011;13256;49.012;8.610;2023-02-14T10:58:05;24.95;;;12.63;;
25319;SDS011;13256;49.012;8.610;2023-02-14T11:00:36;26.67;;;14.18;;
25319;SDS011;13256;49.012;8.610;2023-02-14T11:03:07;25.42;;;13.52;;
25319;SDS011;13256;49.012;8.610;2023-02-14T11:05:40;24.77;;;12.77;;
25319;SDS011;13256;49.012;8.610;2023-02-14T11:16:58;29.88;;;14.35;;
25319;SDS011;13256;49.012;8.610;2023-02-14T11:19:55;24.90;;;13.27;;
25319;SDS011;13256;49.012;8.610;2023-02-14T11:22:28;25.88;;;14.00;;
25319;SDS011;13256;49.012;8.610;2023-02-14T11:25:06;24.75;;;13.25;;
25319;SDS011;13256;49.012;8.610;2023-02-14T11:27:47;31.52;;;13.60;;
25319;SDS011;13256;49.012;8.610;2023-02-14T11:30:18;27.00;;;14.45;;
25319;SDS011;13256;49.012;8.610;2023-02-14T11:33:00;24.88;;;13.00;;
25319;SDS011;13256;49.012;8.610;2023-02-14T11:55:57;23.98;;;12.93;;
25319;SDS011;13256;49.012;8.610;2023-02-14T12:01:02;23.40;;;12.95;;
25319;SDS011;13256;49.012;8.610;2023-02-14T12:03:36;23.13;;;12.25;;
25319;SDS011;13256;49.012;8.610;2023-02-14T12:06:34;30.10;;;14.18;;
25319;SDS011;13256;49.012;8.610;2023-02-14T12:09:11;25.60;;;13.50;;
25319;SDS011;13256;49.012;8.610;2023-02-14T12:11:38;22.88;;;13.05;;
25319;SDS011;13256;49.012;8.610;2023-02-14T12:14:07;24.63;;;13.23;;
25319;SDS011;13256;49.012;8.610;2023-02-14T12:20:07;27.38;;;13.93;;
25319;SDS011;13256;49.012;8.610;2023-02-14T12:22:45;28.65;;;13.93;;
25319;SDS011;13256;49.012;8.610;2023-02-14T12:25:26;27.13;;;13.45;;
25319;SDS011;13256;49.012;8.610;2023-02-14T12:28:18;25.13;;;12.93;;
25319;SDS011;13256;49.012;8.610;2023-02-14T13:05:13;28.88;;;14.30;;
25319;SDS011;13256;49.012;8.610;2023-02-14T13:19:33;25.58;;;14.15;;
25319;SDS011;13256;49.012;8.610;2023-02-14T13:22:19;28.90;;;15.38;;
25319;SDS011;13256;49.012;8.610;2023-02-14T13:27:38;27.02;;;14.48;;
25319;SDS011;13256;49.012;8.610;2023-02-14T13:32:42;27.50;;;14.88;;
25319;SDS011;13256;49.012;8.610;2023-02-14T13:35:14;23.92;;;13.25;;
25319;SDS011;13256;49.012;8.610;2023-02-14T13:37:54;32.80;;;14.30;;
25319;SDS011;13256;49.012;8.610;2023-02-14T13:49:02;25.85;;;13.93;;
25319;SDS011;13256;49.012;8.610;2023-02-14T13:51:48;30.33;;;15.50;;
25319;SDS011;13256;49.012;8.610;2023-02-14T13:56:57;26.70;;;14.25;;
25319;SDS011;13256;49.012;8.610;2023-02-14T13:59:33;28.80;;;13.68;;
25319;SDS011;13256;49.012;8.610;2023-02-14T14:08:14;24.02;;;13.82;;
25319;SDS011;13256;49.012;8.610;2023-02-14T14:10:44;26.05;;;14.18;;
25319;SDS011;13256;49.012;8.610;2023-02-14T14:21:43;23.02;;;13.98;;
25319;SDS011;13256;49.012;8.610;2023-02-14T14:24:32;27.80;;;13.85;;
25319;SDS011;13256;49.012;8.610;2023-02-14T14:35:22;26.67;;;14.18;;
25319;SDS011;13256;49.012;8.610;2023-02-14T14:46:03;27.15;;;14.38;;
25319;SDS011;13256;49.012;8.610;2023-02-14T14:48:43;33.45;;;14.23;;
25319;SDS011;13256;49.012;8.610;2023-02-14T14:59:43;24.33;;;14.07;;
25319;SDS011;13256;49.012;8.610;2023-02-14T15:02:19;25.40;;;13.13;;
25319;SDS011;13256;49.012;8.610;2023-02-14T15:07:25;25.27;;;13.52;;
25319;SDS011;13256;49.012;8.610;2023-02-14T15:09:59;24.02;;;13.55;;
25319;SDS011;13256;49.012;8.610;2023-02-14T15:15:11;26.60;;;14.70;;
25319;SDS011;13256;49.012;8.610;2023-02-14T15:17:41;28.08;;;14.68;;
25319;SDS011;13256;49.012;8.610;2023-02-14T15:20:17;26.52;;;14.25;;
25319;SDS011;13256;49.012;8.610;2023-02-14T15:25:51;26.52;;;14.07;;
25319;SDS011;13256;49.012;8.610;2023-02-14T15:28:31;26.17;;;13.90;;
25319;SDS011;13256;49.012;8.610;2023-02-14T15:31:04;26.42;;;14.20;;
25319;SDS011;13256;49.012;8.610;2023-02-14T15:36:14;25.58;;;13.45;;
25319;SDS011;13256;49.012;8.610;2023-02-14T15:38:46;30.02;;;15.35;;
25319;SDS011;13256;49.012;8.610;2023-02-14T15:41:16;26.20;;;14.88;;
25319;SDS011;13256;49.012;8.610;2023-02-14T15:43:48;25.83;;;14.77;;
25319;SDS011;13256;49.012;8.610;2023-02-14T15:51:55;28.65;;;15.05;;
25319;SDS011;13256;49.012;8.610;2023-02-14T16:00:03;26.92;;;14.70;;
25319;SDS011;13256;49.012;8.610;2023-02-14T16:02:42;28.38;;;15.10;;
25319;SDS011;13256;49.012;8.610;2023-02-14T16:10:57;26.42;;;14.88;;
25319;SDS011;13256;49.012;8.610;2023-02-14T16:16:04;27.00;;;15.20;;
25319;SDS011;13256;49.012;8.610;2023-02-14T16:29:57;29.05;;;14.48;;
25319;SDS011;13256;49.012;8.610;2023-02-14T16:32:24;27.15;;;14.60;;
25319;SDS011;13256;49.012;8.610;2023-02-14T16:35:09;29.23;;;14.57;;
25319;SDS011;13256;49.012;8.610;2023-02-14T16:40:38;30.45;;;14.88;;
25319;SDS011;13256;49.012;8.610;2023-02-14T16:43:17;29.70;;;14.75;;
25319;SDS011;13256;49.012;8.610;2023-02-14T16:45:50;38.72;;;17.27;;
25319;SDS011;13256;49.012;8.610;2023-02-14T16:48:18;29.65;;;14.32;;
25319;SDS011;13256;49.012;8.610;2023-02-14T16:50:46;29.85;;;14.60;;
25319;SDS011;13256;49.012;8.610;2023-02-14T16:53:21;30.33;;;15.60;;
25319;SDS011;13256;49.012;8.610;2023-02-14T16:55:51;27.98;;;14.02;;
25319;SDS011;13256;49.012;8.610;2023-02-14T16:58:23;35.50;;;18.50;;
25319;SDS011;13256;49.012;8.610;2023-02-14T17:00:58;30.48;;;15.15;;
25319;SDS011;13256;49.012;8.610;2023-02-14T17:03:31;29.45;;;14.65;;
25319;SDS011;13256;49.012;8.610;2023-02-14T17:05:58;28.92;;;15.57;;
25319;SDS011;13256;49.012;8.610;2023-02-14T17:08:26;42.70;;;16.90;;
25319;SDS011;13256;49.012;8.610;2023-02-14T17:10:57;35.92;;;17.58;;
25319;SDS011;13256;49.012;8.610;2023-02-14T17:13:52;55.40;;;24.20;;
25319;SDS011;13256;49.012;8.610;2023-02-14T17:16:20;57.78;;;27.27;;
25319;SDS011;13256;49.012;8.610;2023-02-14T17:18:49;67.53;;;31.08;;
25319;SDS011;13256;49.012;8.610;2023-02-14T17:21:23;74.93;;;32.85;;
25319;SDS011;13256;49.012;8.610;2023-02-14T17:23:49;65.13;;;27.95;;
25319;SDS011;13256;49.012;8.610;2023-02-14T17:26:16;51.15;;;23.90;;
25319;SDS011;13256;49.012;8.610;2023-02-14T17:28:45;55.28;;;25.73;;
25319;SDS011;13256;49.012;8.610;2023-02-14T17:31:14;47.80;;;20.70;;
25319;SDS011;13256;49.012;8.610;2023-02-14T17:33:41;46.92;;;23.52;;
25319;SDS011;13256;49.012;8.610;2023-02-14T17:36:09;49.85;;;23.63;;
25319;SDS011;13256;49.012;8.610;2023-02-14T17:38:42;53.67;;;23.95;;
25319;SDS011;13256;49.012;8.610;2023-02-14T17:41:19;66.03;;;27.75;;
25319;SDS011;13256;49.012;8.610;2023-02-14T17:43:54;57.33;;;25.42;;
25319;SDS011;13256;49.012;8.610;2023-02-14T17:46:26;53.08;;;24.77;;
25319;SDS011;13256;49.012;8.610;2023-02-14T17:48:53;60.75;;;26.85;;
25319;SDS011;13256;49.012;8.610;2023-02-14T17:51:30;67.65;;;28.30;;
25319;SDS011;13256;49.012;8.610;2023-02-14T17:53:59;86.43;;;34.38;;
25319;SDS011;13256;49.012;8.610;2023-02-14T17:56:31;76.40;;;33.08;;
25319;SDS011;13256;49.012;8.610;2023-02-14T17:58:57;83.80;;;35.47;;
25319;SDS011;13256;49.012;8.610;2023-02-14T18:01:26;82.40;;;33.00;;
25319;SDS011;13256;49.012;8.610;2023-02-14T18:04:01;71.78;;;31.40;;
25319;SDS011;13256;49.012;8.610;2023-02-14T18:06:55;58.42;;;26.85;;
25319;SDS011;13256;49.012;8.610;2023-02-14T18:09:22;52.97;;;25.42;;
25319;SDS011;13256;49.012;8.610;2023-02-14T18:11:53;62.72;;;30.48;;
25319;SDS011;13256;49.012;8.610;2023-02-14T18:14:23;67.22;;;28.17;;
25319;SDS011;13256;49.012;8.610;2023-02-14T18:16:53;59.42;;;25.50;;
25319;SDS011;13256;49.012;8.610;2023-02-14T18:19:20;56.42;;;23.75;;
25319;SDS011;13256;49.012;8.610;2023-02-14T18:21:50;56.70;;;24.67;;
25319;SDS011;13256;49.012;8.610;2023-02-14T18:24:22;57.47;;;26.45;;
25319;SDS011;13256;49.012;8.610;2023-02-14T18:26:57;67.90;;;29.60;;
25319;SDS011;13256;49.012;8.610;2023-02-14T18:29:27;73.03;;;30.30;;
25319;SDS011;13256;49.012;8.610;2023-02-14T18:31:54;96.88;;;35.97;;
25319;SDS011;13256;49.012;8.610;2023-02-14T18:34:23;132.75;;;44.90;;
25319;SDS011;13256;49.012;8.610;2023-02-14T18:36:50;98.75;;;38.60;;
25319;SDS011;13256;49.012;8.610;2023-02-14T18:39:18;66.68;;;28.83;;
25319;SDS011;13256;49.012;8.610;2023-02-14T18:41:45;43.28;;;20.15;;
25319;SDS011;13256;49.012;8.610;2023-02-14T18:44:17;42.85;;;20.52;;
25319;SDS011;13256;49.012;8.610;2023-02-14T18:46:53;37.25;;;17.55;;
25319;SDS011;13256;49.012;8.610;2023-02-14T18:49:21;37.30;;;17.83;;
25319;SDS011;13256;49.012;8.610;2023-02-14T18:51:48;38.22;;;16.48;;
25319;SDS011;13256;49.012;8.610;2023-02-14T18:54:25;38.58;;;16.98;;
25319;SDS011;13256;49.012;8.610;2023-02-14T18:56:51;35.15;;;16.77;;
25319;SDS011;13256;49.012;8.610;2023-02-14T18:59:20;49.63;;;21.45;;
25319;SDS011;13256;49.012;8.610;2023-02-14T19:01:47;40.95;;;19.13;;
25319;SDS011;13256;49.012;8.610;2023-02-14T19:04:16;34.80;;;16.63;;
25319;SDS011;13256;49.012;8.610;2023-02-14T19:06:46;31.33;;;14.98;;
25319;SDS011;13256;49.012;8.610;2023-02-14T19:09:15;26.70;;;13.20;;
25319;SDS011;13256;49.012;8.610;2023-02-14T19:11:44;27.10;;;13.73;;
25319;SDS011;13256;49.012;8.610;2023-02-14T19:14:12;30.05;;;14.27;;
25319;SDS011;13256;49.012;8.610;2023-02-14T19:16:44;34.75;;;16.05;;
25319;SDS011;13256;49.012;8.610;2023-02-14T19:19:23;42.40;;;17.15;;
25319;SDS011;13256;49.012;8.610;2023-02-14T19:21:51;46.05;;;22.08;;
25319;SDS011;13256;49.012;8.610;2023-02-14T19:24:18;52.00;;;23.23;;
25319;SDS011;13256;49.012;8.610;2023-02-14T19:26:48;53.38;;;23.00;;
25319;SDS011;13256;49.012;8.610;2023-02-14T19:29:15;53.17;;;23.33;;
25319;SDS011;13256;49.012;8.610;2023-02-14T19:31:44;56.00;;;24.50;;
25319;SDS011;13256;49.012;8.610;2023-02-14T19:34:18;52.50;;;22.40;;
25319;SDS011;13256;49.012;8.610;2023-02-14T19:37:02;53.75;;;23.33;;
25319;SDS011;13256;49.012;8.610;2023-02-14T19:39:29;42.30;;;20.38;;
25319;SDS011;13256;49.012;8.610;2023-02-14T19:41:58;44.03;;;20.20;;
25319;SDS011;13256;49.012;8.610;2023-02-14T19:44:32;48.08;;;19.42;;
25319;SDS011;13256;49.012;8.610;2023-02-14T19:46:58;49.13;;;19.67;;
25319;SDS011;13256;49.012;8.610;2023-02-14T19:49:26;44.33;;;20.00;;
25319;SDS011;13256;49.012;8.610;2023-02-14T19:51:54;41.33;;;17.40;;
25319;SDS011;13256;49.012;8.610;2023-02-14T19:54:21;48.50;;;23.27;;
25319;SDS011;13256;49.012;8.610;2023-02-14T19:56:51;62.92;;;28.90;;
25319;SDS011;13256;49.012;8.610;2023-02-14T19:59:20;58.92;;;26.48;;
25319;SDS011;13256;49.012;8.610;2023-02-14T20:01:49;56.95;;;27.25;;
25319;SDS011;13256;49.012;8.610;2023-02-14T20:04:23;63.00;;;26.63;;
25319;SDS011;13256;49.012;8.610;2023-02-14T20:06:52;54.95;;;26.40;;
25319;SDS011;13256;49.012;8.610;2023-02-14T20:09:23;41.97;;;20.27;;
25319;SDS011;13256;49.012;8.610;2023-02-14T20:11:51;42.58;;;19.83;;
25319;SDS011;13256;49.012;8.610;2023-02-14T20:14:24;45.33;;;19.33;;
25319;SDS011;13256;49.012;8.610;2023-02-14T20:16:56;44.30;;;19.08;;
25319;SDS011;13256;49.012;8.610;2023-02-14T20:19:29;60.35;;;23.88;;
25319;SDS011;13256;49.012;8.610;2023-02-14T20:22:03;46.75;;;19.60;;
25319;SDS011;13256;49.012;8.610;2023-02-14T20:27:03;31.02;;;17.10;;
25319;SDS011;13256;49.012;8.610;2023-02-14T20:32:28;34.50;;;17.30;;
25319;SDS011;13256;49.012;8.610;2023-02-14T20:34:56;40.00;;;18.50;;
25319;SDS011;13256;49.012;8.610;2023-02-14T20:44:31;33.42;;;14.52;;
25319;SDS011;13256;49.012;8.610;2023-02-14T20:47:08;36.30;;;14.95;;
25319;SDS011;13256;49.012;8.610;2023-02-14T20:49:41;37.90;;;15.55;;
25319;SDS011;13256;49.012;8.610;2023-02-14T20:52:11;33.85;;;15.00;;
25319;SDS011;13256;49.012;8.610;2023-02-14T20:54:38;31.33;;;16.13;;
25319;SDS011;13256;49.012;8.610;2023-02-14T20:57:06;47.83;;;20.88;;
25319;SDS011;13256;49.012;8.610;2023-02-14T20:59:35;49.95;;;20.15;;
25319;SDS011;13256;49.012;8.610;2023-02-14T21:02:11;39.85;;;17.55;;
25319;SDS011;13256;49.012;8.610;2023-02-14T21:04:38;51.60;;;21.55;;
25319;SDS011;13256;49.012;8.610;2023-02-14T21:07:06;45.40;;;17.88;;
25319;SDS011;13256;49.012;8.610;2023-02-14T21:09:35;58.35;;;22.50;;
25319;SDS011;13256;49.012;8.610;2023-02-14T21:12:05;57.03;;;21.67;;
25319;SDS011;13256;49.012;8.610;2023-02-14T21:14:32;54.55;;;22.90;;
25319;SDS011;13256;49.012;8.610;2023-02-14T21:16:59;57.10;;;22.95;;
25319;SDS011;13256;49.012;8.610;2023-02-14T21:19:31;60.53;;;24.05;;
25319;SDS011;13256;49.012;8.610;2023-02-14T21:24:29;61.35;;;24.15;;
25319;SDS011;13256;49.012;8.610;2023-02-14T21:27:46;42.53;;;19.92;;
25319;SDS011;13256;49.012;8.610;2023-02-14T21:39:37;34.47;;;15.82;;
25319;SDS011;13256;49.012;8.610;2023-02-14T21:42:50;45.72;;;18.17;;
25319;SDS011;13256;49.012;8.610;2023-02-14T21:45:21;37.97;;;15.88;;
25319;SDS011;13256;49.012;8.610;2023-02-14T21:48:07;43.70;;;18.38;;
25319;SDS011;13256;49.012;8.610;2023-02-14T21:54:28;41.67;;;18.13;;
25319;SDS011;13256;49.012;8.610;2023-02-14T21:56:55;46.35;;;20.13;;
25319;SDS011;13256;49.012;8.610;2023-02-14T21:59:22;43.55;;;18.52;;
25319;SDS011;13256;49.012;8.610;2023-02-14T22:01:55;48.13;;;20.13;;
25319;SDS011;13256;49.012;8.610;2023-02-14T22:04:54;50.85;;;20.35;;
25319;SDS011;13256;49.012;8.610;2023-02-14T22:07:24;56.80;;;22.35;;
25319;SDS011;13256;49.012;8.610;2023-02-14T22:09:56;52.67;;;22.00;;
25319;SDS011;13256;49.012;8.610;2023-02-14T22:12:24;47.60;;;19.92;;
25319;SDS011;13256;49.012;8.610;2023-02-14T22:14:59;49.05;;;20.13;;
25319;SDS011;13256;49.012;8.610;2023-02-14T22:17:26;50.20;;;21.65;;
25319;SDS011;13256;49.012;8.610;2023-02-14T22:19:58;53.37;;;20.90;;
25319;SDS011;13256;49.012;8.610;2023-02-14T22:22:26;51.22;;;20.95;;